sensor_id;sensor_type;location;lat;lon;timestamp;P1;durP1;ratioP1;P2;durP2;ratioP2
46835;SDS011;32573;51.290;6.926;2023-06-26T00:00:12;4.85;;;2.38;;
46835;SDS011;32573;51.290;6.926;2023-06-26T00:02:41;4.60;;;2.40;;
46835;SDS011;32573;51.290;6.926;2023-06-26T00:05:09;4.63;;;2.60;;
46835;SDS011;32573;51.290;6.926;2023-06-26T00:07:38;4.57;;;2.40;;
46835;SDS011;32573;51.290;6.926;2023-06-26T00:10:06;4.80;;;2.80;;
46835;SDS011;32573;51.290;6.926;2023-06-26T00:12:36;4.45;;;2.47;;
46835;SDS011;32573;51.290;6.926;2023-06-26T00:15:05;4.53;;;2.80;;
46835;SDS011;32573;51.290;6.926;2023-06-26T00:17:35;4.28;;;2.35;;
46835;SDS011;32573;51.290;6.926;2023-06-26T00:20:05;4.40;;;2.50;;
46835;SDS011;32573;51.290;6.926;2023-06-26T00:22:38;4.88;;;2.63;;
46835;SDS011;32573;51.290;6.926;2023-06-26T00:25:08;5.10;;;2.60;;
46835;SDS011;32573;51.290;6.926;2023-06-26T00:27:38;4.65;;;2.45;;
46835;SDS011;32573;51.290;6.926;2023-06-26T00:30:06;4.57;;;2.40;;
46835;SDS011;32573;51.290;6.926;2023-06-26T00:32:35;4.45;;;2.53;;
46835;SDS011;32573;51.290;6.926;2023-06-26T00:35:05;4.80;;;2.67;;
46835;SDS011;32573;51.290;6.926;2023-06-26T00:37:34;4.70;;;2.55;;
46835;SDS011;32573;51.290;6.926;2023-06-26T00:40:02;4.63;;;2.53;;
46835;SDS011;32573;51.290;6.926;2023-06-26T00:42:32;4.85;;;2.78;;
46835;SDS011;32573;51.290;6.926;2023-06-26T00:45:02;4.45;;;2.45;;
46835;SDS011;32573;51.290;6.926;2023-06-26T00:47:31;4.72;;;2.70;;
46835;SDS011;32573;51.290;6.926;2023-06-26T00:50:00;4.70;;;2.60;;
46835;SDS011;32573;51.290;6.926;2023-06-26T00:52:29;5.22;;;2.67;;
46835;SDS011;32573;51.290;6.926;2023-06-26T00:54:59;4.82;;;2.58;;
46835;SDS011;32573;51.290;6.926;2023-06-26T00:57:28;4.50;;;2.70;;
46835;SDS011;32573;51.290;6.926;2023-06-26T00:59:59;5.40;;;2.65;;
46835;SDS011;32573;51.290;6.926;2023-06-26T01:02:32;4.85;;;2.60;;
46835;SDS011;32573;51.290;6.926;2023-06-26T01:05:01;5.20;;;2.90;;
46835;SDS011;32573;51.290;6.926;2023-06-26T01:07:34;5.00;;;2.43;;
46835;SDS011;32573;51.290;6.926;2023-06-26T01:10:05;5.47;;;3.03;;
46835;SDS011;32573;51.290;6.926;2023-06-26T01:12:34;4.60;;;2.90;;
46835;SDS011;32573;51.290;6.926;2023-06-26T01:15:06;5.40;;;2.40;;
46835;SDS011;32573;51.290;6.926;2023-06-26T01:17:38;4.55;;;2.60;;
46835;SDS011;32573;51.290;6.926;2023-06-26T01:20:10;4.97;;;2.80;;
46835;SDS011;32573;51.290;6.926;2023-06-26T01:22:43;4.50;;;2.40;;
46835;SDS011;32573;51.290;6.926;2023-06-26T01:25:20;4.32;;;2.50;;
46835;SDS011;32573;51.290;6.926;2023-06-26T01:27:52;4.97;;;2.47;;
46835;SDS011;32573;51.290;6.926;2023-06-26T01:30:23;5.15;;;2.85;;
46835;SDS011;32573;51.290;6.926;2023-06-26T01:32:53;4.97;;;2.70;;
46835;SDS011;32573;51.290;6.926;2023-06-26T01:35:22;4.43;;;2.50;;
46835;SDS011;32573;51.290;6.926;2023-06-26T01:37:50;4.70;;;2.63;;
46835;SDS011;32573;51.290;6.926;2023-06-26T01:40:19;4.88;;;2.45;;
46835;SDS011;32573;51.290;6.926;2023-06-26T01:42:48;5.18;;;2.40;;
46835;SDS011;32573;51.290;6.926;2023-06-26T01:45:24;4.35;;;2.58;;
46835;SDS011;32573;51.290;6.926;2023-06-26T01:47:59;5.45;;;2.63;;
46835;SDS011;32573;51.290;6.926;2023-06-26T01:50:29;4.80;;;2.40;;
46835;SDS011;32573;51.290;6.926;2023-06-26T01:53:02;4.38;;;2.40;;
46835;SDS011;32573;51.290;6.926;2023-06-26T01:55:37;4.32;;;2.40;;
46835;SDS011;32573;51.290;6.926;2023-06-26T01:58:12;5.20;;;2.70;;
46835;SDS011;32573;51.290;6.926;2023-06-26T02:00:43;4.88;;;2.63;;
46835;SDS011;32573;51.290;6.926;2023-06-26T02:03:11;5.13;;;2.35;;
46835;SDS011;32573;51.290;6.926;2023-06-26T02:05:40;4.57;;;2.63;;
46835;SDS011;32573;51.290;6.926;2023-06-26T02:08:09;5.15;;;2.38;;
46835;SDS011;32573;51.290;6.926;2023-06-26T02:10:38;5.18;;;2.67;;
46835;SDS011;32573;51.290;6.926;2023-06-26T02:13:08;4.78;;;2.50;;
46835;SDS011;32573;51.290;6.926;2023-06-26T02:15:36;4.22;;;2.60;;
46835;SDS011;32573;51.290;6.926;2023-06-26T02:18:06;5.10;;;2.47;;
46835;SDS011;32573;51.290;6.926;2023-06-26T02:20:34;5.20;;;2.90;;
46835;SDS011;32573;51.290;6.926;2023-06-26T02:23:03;4.97;;;2.70;;
46835;SDS011;32573;51.290;6.926;2023-06-26T02:25:35;4.63;;;2.53;;
46835;SDS011;32573;51.290;6.926;2023-06-26T02:28:06;4.40;;;2.42;;
46835;SDS011;32573;51.290;6.926;2023-06-26T02:30:35;4.72;;;2.60;;
46835;SDS011;32573;51.290;6.926;2023-06-26T02:33:05;4.72;;;2.60;;
46835;SDS011;32573;51.290;6.926;2023-06-26T02:35:34;4.40;;;2.40;;
46835;SDS011;32573;51.290;6.926;2023-06-26T02:38:03;4.55;;;2.58;;
46835;SDS011;32573;51.290;6.926;2023-06-26T02:40:32;5.05;;;2.53;;
46835;SDS011;32573;51.290;6.926;2023-06-26T02:43:01;4.60;;;2.67;;
46835;SDS011;32573;51.290;6.926;2023-06-26T02:45:31;5.35;;;2.70;;
46835;SDS011;32573;51.290;6.926;2023-06-26T02:48:00;4.88;;;2.80;;
46835;SDS011;32573;51.290;6.926;2023-06-26T02:50:31;4.40;;;2.42;;
46835;SDS011;32573;51.290;6.926;2023-06-26T02:53:06;4.32;;;2.50;;
46835;SDS011;32573;51.290;6.926;2023-06-26T02:55:38;4.47;;;2.53;;
46835;SDS011;32573;51.290;6.926;2023-06-26T02:58:06;5.30;;;2.75;;
46835;SDS011;32573;51.290;6.926;2023-06-26T03:00:37;4.93;;;2.60;;
46835;SDS011;32573;51.290;6.926;2023-06-26T03:03:12;4.47;;;2.40;;
46835;SDS011;32573;51.290;6.926;2023-06-26T03:05:42;4.65;;;2.40;;
46835;SDS011;32573;51.290;6.926;2023-06-26T03:08:10;4.90;;;2.70;;
46835;SDS011;32573;51.290;6.926;2023-06-26T03:10:39;5.22;;;2.78;;
46835;SDS011;32573;51.290;6.926;2023-06-26T03:13:08;4.60;;;2.80;;
46835;SDS011;32573;51.290;6.926;2023-06-26T03:15:37;4.75;;;2.55;;
46835;SDS011;32573;51.290;6.926;2023-06-26T03:18:05;5.57;;;2.92;;
46835;SDS011;32573;51.290;6.926;2023-06-26T03:20:34;5.32;;;2.78;;
46835;SDS011;32573;51.290;6.926;2023-06-26T03:23:04;4.90;;;2.47;;
46835;SDS011;32573;51.290;6.926;2023-06-26T03:25:33;4.90;;;2.78;;
46835;SDS011;32573;51.290;6.926;2023-06-26T03:28:17;4.97;;;2.60;;
46835;SDS011;32573;51.290;6.926;2023-06-26T03:30:46;5.57;;;2.40;;
46835;SDS011;32573;51.290;6.926;2023-06-26T03:33:15;4.90;;;2.63;;
46835;SDS011;32573;51.290;6.926;2023-06-26T03:35:44;5.13;;;2.80;;
46835;SDS011;32573;51.290;6.926;2023-06-26T03:38:15;5.15;;;2.75;;
46835;SDS011;32573;51.290;6.926;2023-06-26T03:40:45;4.75;;;2.53;;
46835;SDS011;32573;51.290;6.926;2023-06-26T03:43:13;5.43;;;2.50;;
46835;SDS011;32573;51.290;6.926;2023-06-26T03:45:48;4.45;;;2.55;;
46835;SDS011;32573;51.290;6.926;2023-06-26T03:48:17;4.95;;;2.83;;
46835;SDS011;32573;51.290;6.926;2023-06-26T03:50:45;4.43;;;2.55;;
46835;SDS011;32573;51.290;6.926;2023-06-26T03:53:17;5.25;;;2.80;;
46835;SDS011;32573;51.290;6.926;2023-06-26T03:55:45;5.70;;;2.90;;
46835;SDS011;32573;51.290;6.926;2023-06-26T03:58:14;5.28;;;2.78;;
46835;SDS011;32573;51.290;6.926;2023-06-26T04:00:43;5.38;;;2.85;;
46835;SDS011;32573;51.290;6.926;2023-06-26T04:03:12;4.38;;;2.45;;
46835;SDS011;32573;51.290;6.926;2023-06-26T04:05:41;4.63;;;2.53;;
46835;SDS011;32573;51.290;6.926;2023-06-26T04:08:10;5.45;;;2.72;;
46835;SDS011;32573;51.290;6.926;2023-06-26T04:10:40;4.63;;;2.70;;
46835;SDS011;32573;51.290;6.926;2023-06-26T04:13:08;5.20;;;2.80;;
46835;SDS011;32573;51.290;6.926;2023-06-26T04:15:37;5.15;;;2.90;;
46835;SDS011;32573;51.290;6.926;2023-06-26T04:18:06;5.03;;;2.88;;
46835;SDS011;32573;51.290;6.926;2023-06-26T04:20:39;6.25;;;2.75;;
46835;SDS011;32573;51.290;6.926;2023-06-26T04:23:09;5.28;;;2.72;;
46835;SDS011;32573;51.290;6.926;2023-06-26T04:25:37;5.00;;;2.78;;
46835;SDS011;32573;51.290;6.926;2023-06-26T04:28:07;5.30;;;2.80;;
46835;SDS011;32573;51.290;6.926;2023-06-26T04:30:36;5.85;;;3.10;;
46835;SDS011;32573;51.290;6.926;2023-06-26T04:33:06;5.18;;;2.92;;
46835;SDS011;32573;51.290;6.926;2023-06-26T04:35:39;5.75;;;2.78;;
46835;SDS011;32573;51.290;6.926;2023-06-26T04:38:07;4.80;;;2.80;;
46835;SDS011;32573;51.290;6.926;2023-06-26T04:40:36;5.13;;;2.72;;
46835;SDS011;32573;51.290;6.926;2023-06-26T04:43:05;4.57;;;2.70;;
46835;SDS011;32573;51.290;6.926;2023-06-26T04:45:35;4.50;;;2.80;;
46835;SDS011;32573;51.290;6.926;2023-06-26T04:48:04;4.75;;;2.50;;
46835;SDS011;32573;51.290;6.926;2023-06-26T04:50:33;5.10;;;3.05;;
46835;SDS011;32573;51.290;6.926;2023-06-26T04:53:02;5.72;;;3.03;;
46835;SDS011;32573;51.290;6.926;2023-06-26T04:55:31;5.13;;;2.90;;
46835;SDS011;32573;51.290;6.926;2023-06-26T04:57:59;5.40;;;2.80;;
46835;SDS011;32573;51.290;6.926;2023-06-26T05:00:28;4.88;;;2.90;;
46835;SDS011;32573;51.290;6.926;2023-06-26T05:02:58;6.40;;;2.97;;
46835;SDS011;32573;51.290;6.926;2023-06-26T05:05:28;5.28;;;2.97;;
46835;SDS011;32573;51.290;6.926;2023-06-26T05:07:57;4.93;;;3.05;;
46835;SDS011;32573;51.290;6.926;2023-06-26T05:10:25;5.30;;;3.10;;
46835;SDS011;32573;51.290;6.926;2023-06-26T05:12:54;6.07;;;3.03;;
46835;SDS011;32573;51.290;6.926;2023-06-26T05:15:22;5.03;;;2.90;;
46835;SDS011;32573;51.290;6.926;2023-06-26T05:17:51;5.32;;;2.80;;
46835;SDS011;32573;51.290;6.926;2023-06-26T05:20:21;5.97;;;2.80;;
46835;SDS011;32573;51.290;6.926;2023-06-26T05:22:49;5.15;;;2.65;;
46835;SDS011;32573;51.290;6.926;2023-06-26T05:25:18;5.70;;;3.08;;
46835;SDS011;32573;51.290;6.926;2023-06-26T05:27:48;4.35;;;2.40;;
46835;SDS011;32573;51.290;6.926;2023-06-26T05:30:18;5.53;;;2.90;;
46835;SDS011;32573;51.290;6.926;2023-06-26T05:32:47;6.88;;;3.03;;
46835;SDS011;32573;51.290;6.926;2023-06-26T05:35:17;5.00;;;2.70;;
46835;SDS011;32573;51.290;6.926;2023-06-26T05:37:49;4.80;;;2.60;;
46835;SDS011;32573;51.290;6.926;2023-06-26T05:40:19;6.10;;;3.10;;
46835;SDS011;32573;51.290;6.926;2023-06-26T05:42:48;5.63;;;3.00;;
46835;SDS011;32573;51.290;6.926;2023-06-26T05:45:17;6.68;;;2.90;;
46835;SDS011;32573;51.290;6.926;2023-06-26T05:47:45;6.72;;;3.00;;
46835;SDS011;32573;51.290;6.926;2023-06-26T05:50:18;5.95;;;2.90;;
46835;SDS011;32573;51.290;6.926;2023-06-26T05:52:49;5.18;;;2.30;;
46835;SDS011;32573;51.290;6.926;2023-06-26T05:55:18;5.43;;;2.50;;
46835;SDS011;32573;51.290;6.926;2023-06-26T05:57:47;5.45;;;2.55;;
46835;SDS011;32573;51.290;6.926;2023-06-26T06:00:18;4.63;;;2.40;;
46835;SDS011;32573;51.290;6.926;2023-06-26T06:02:47;5.68;;;2.50;;
46835;SDS011;32573;51.290;6.926;2023-06-26T06:05:16;5.57;;;3.00;;
46835;SDS011;32573;51.290;6.926;2023-06-26T06:07:44;5.68;;;3.00;;
46835;SDS011;32573;51.290;6.926;2023-06-26T06:10:14;4.70;;;2.47;;
46835;SDS011;32573;51.290;6.926;2023-06-26T06:12:42;6.40;;;2.70;;
46835;SDS011;32573;51.290;6.926;2023-06-26T06:15:11;4.57;;;2.55;;
46835;SDS011;32573;51.290;6.926;2023-06-26T06:17:46;5.18;;;2.38;;
46835;SDS011;32573;51.290;6.926;2023-06-26T06:20:16;6.38;;;2.83;;
46835;SDS011;32573;51.290;6.926;2023-06-26T06:22:48;5.20;;;2.35;;
46835;SDS011;32573;51.290;6.926;2023-06-26T06:25:18;4.30;;;2.28;;
46835;SDS011;32573;51.290;6.926;2023-06-26T06:27:51;5.32;;;2.28;;
46835;SDS011;32573;51.290;6.926;2023-06-26T06:30:20;5.35;;;2.25;;
46835;SDS011;32573;51.290;6.926;2023-06-26T06:33:10;5.55;;;2.50;;
46835;SDS011;32573;51.290;6.926;2023-06-26T06:35:39;5.78;;;2.60;;
46835;SDS011;32573;51.290;6.926;2023-06-26T06:38:12;5.82;;;2.58;;
46835;SDS011;32573;51.290;6.926;2023-06-26T06:40:48;4.80;;;2.60;;
46835;SDS011;32573;51.290;6.926;2023-06-26T06:43:21;5.10;;;2.40;;
46835;SDS011;32573;51.290;6.926;2023-06-26T06:45:53;5.60;;;2.70;;
46835;SDS011;32573;51.290;6.926;2023-06-26T06:48:36;5.88;;;2.60;;
46835;SDS011;32573;51.290;6.926;2023-06-26T06:51:05;5.22;;;2.40;;
46835;SDS011;32573;51.290;6.926;2023-06-26T06:53:36;5.75;;;2.58;;
46835;SDS011;32573;51.290;6.926;2023-06-26T06:56:09;4.90;;;2.50;;
46835;SDS011;32573;51.290;6.926;2023-06-26T06:58:55;6.97;;;2.70;;
46835;SDS011;32573;51.290;6.926;2023-06-26T07:01:24;6.95;;;2.70;;
46835;SDS011;32573;51.290;6.926;2023-06-26T07:03:53;4.43;;;2.47;;
46835;SDS011;32573;51.290;6.926;2023-06-26T07:06:33;5.20;;;2.40;;
46835;SDS011;32573;51.290;6.926;2023-06-26T07:09:03;5.88;;;2.83;;
46835;SDS011;32573;51.290;6.926;2023-06-26T07:11:36;5.35;;;2.60;;
46835;SDS011;32573;51.290;6.926;2023-06-26T07:14:06;6.22;;;2.60;;
46835;SDS011;32573;51.290;6.926;2023-06-26T07:16:40;5.45;;;2.30;;
46835;SDS011;32573;51.290;6.926;2023-06-26T07:19:09;5.88;;;2.72;;
46835;SDS011;32573;51.290;6.926;2023-06-26T07:21:40;7.15;;;2.58;;
46835;SDS011;32573;51.290;6.926;2023-06-26T07:24:12;6.93;;;2.50;;
46835;SDS011;32573;51.290;6.926;2023-06-26T07:26:50;6.57;;;2.75;;
46835;SDS011;32573;51.290;6.926;2023-06-26T07:29:27;6.60;;;2.47;;
46835;SDS011;32573;51.290;6.926;2023-06-26T07:31:59;6.60;;;2.42;;
46835;SDS011;32573;51.290;6.926;2023-06-26T07:34:34;4.63;;;2.40;;
46835;SDS011;32573;51.290;6.926;2023-06-26T07:37:06;5.93;;;2.40;;
46835;SDS011;32573;51.290;6.926;2023-06-26T07:39:38;5.07;;;2.55;;
46835;SDS011;32573;51.290;6.926;2023-06-26T07:42:08;5.43;;;2.17;;
46835;SDS011;32573;51.290;6.926;2023-06-26T07:44:37;7.15;;;2.88;;
46835;SDS011;32573;51.290;6.926;2023-06-26T07:47:08;6.97;;;2.95;;
46835;SDS011;32573;51.290;6.926;2023-06-26T07:49:56;5.22;;;2.47;;
46835;SDS011;32573;51.290;6.926;2023-06-26T07:52:25;5.32;;;2.42;;
46835;SDS011;32573;51.290;6.926;2023-06-26T07:54:57;4.85;;;2.47;;
46835;SDS011;32573;51.290;6.926;2023-06-26T07:57:28;7.35;;;3.05;;
46835;SDS011;32573;51.290;6.926;2023-06-26T08:00:07;5.63;;;3.00;;
46835;SDS011;32573;51.290;6.926;2023-06-26T08:02:42;6.20;;;2.70;;
46835;SDS011;32573;51.290;6.926;2023-06-26T08:05:10;5.60;;;2.50;;
46835;SDS011;32573;51.290;6.926;2023-06-26T08:07:39;6.45;;;3.00;;
46835;SDS011;32573;51.290;6.926;2023-06-26T08:10:07;4.78;;;2.22;;
46835;SDS011;32573;51.290;6.926;2023-06-26T08:12:38;6.38;;;2.47;;
46835;SDS011;32573;51.290;6.926;2023-06-26T08:15:09;5.32;;;2.75;;
46835;SDS011;32573;51.290;6.926;2023-06-26T08:17:37;6.97;;;2.90;;
46835;SDS011;32573;51.290;6.926;2023-06-26T08:20:07;7.30;;;3.70;;
46835;SDS011;32573;51.290;6.926;2023-06-26T08:22:36;7.15;;;3.50;;
46835;SDS011;32573;51.290;6.926;2023-06-26T08:25:04;7.28;;;3.38;;
46835;SDS011;32573;51.290;6.926;2023-06-26T08:27:33;6.75;;;2.88;;
46835;SDS011;32573;51.290;6.926;2023-06-26T08:30:03;5.68;;;3.13;;
46835;SDS011;32573;51.290;6.926;2023-06-26T08:32:33;5.80;;;2.80;;
46835;SDS011;32573;51.290;6.926;2023-06-26T08:35:01;6.35;;;3.05;;
46835;SDS011;32573;51.290;6.926;2023-06-26T08:37:29;6.22;;;3.13;;
46835;SDS011;32573;51.290;6.926;2023-06-26T08:39:59;4.68;;;2.45;;
46835;SDS011;32573;51.290;6.926;2023-06-26T08:42:28;5.45;;;2.90;;
46835;SDS011;32573;51.290;6.926;2023-06-26T08:44:57;5.63;;;2.78;;
46835;SDS011;32573;51.290;6.926;2023-06-26T08:47:29;5.55;;;2.90;;
46835;SDS011;32573;51.290;6.926;2023-06-26T08:50:04;8.00;;;2.97;;
46835;SDS011;32573;51.290;6.926;2023-06-26T08:52:37;8.77;;;3.10;;
46835;SDS011;32573;51.290;6.926;2023-06-26T08:57:40;4.70;;;2.40;;
46835;SDS011;32573;51.290;6.926;2023-06-26T09:00:11;6.72;;;2.72;;
46835;SDS011;32573;51.290;6.926;2023-06-26T09:02:43;5.00;;;2.67;;
46835;SDS011;32573;51.290;6.926;2023-06-26T09:05:12;5.40;;;2.78;;
46835;SDS011;32573;51.290;6.926;2023-06-26T09:07:41;6.28;;;2.58;;
46835;SDS011;32573;51.290;6.926;2023-06-26T09:10:10;5.35;;;2.83;;
46835;SDS011;32573;51.290;6.926;2023-06-26T09:12:38;5.97;;;2.42;;
46835;SDS011;32573;51.290;6.926;2023-06-26T09:15:07;6.72;;;2.92;;
46835;SDS011;32573;51.290;6.926;2023-06-26T09:17:44;6.55;;;2.30;;
46835;SDS011;32573;51.290;6.926;2023-06-26T09:20:13;7.50;;;2.53;;
46835;SDS011;32573;51.290;6.926;2023-06-26T09:22:43;6.18;;;2.60;;
46835;SDS011;32573;51.290;6.926;2023-06-26T09:25:15;6.28;;;2.47;;
46835;SDS011;32573;51.290;6.926;2023-06-26T09:27:44;5.93;;;2.00;;
46835;SDS011;32573;51.290;6.926;2023-06-26T09:30:16;5.22;;;2.10;;
46835;SDS011;32573;51.290;6.926;2023-06-26T09:32:46;4.30;;;2.05;;
46835;SDS011;32573;51.290;6.926;2023-06-26T09:35:17;5.55;;;2.33;;
46835;SDS011;32573;51.290;6.926;2023-06-26T09:37:46;4.88;;;2.30;;
46835;SDS011;32573;51.290;6.926;2023-06-26T09:40:14;5.55;;;2.10;;
46835;SDS011;32573;51.290;6.926;2023-06-26T09:42:43;5.05;;;2.25;;
46835;SDS011;32573;51.290;6.926;2023-06-26T09:45:17;7.78;;;2.50;;
46835;SDS011;32573;51.290;6.926;2023-06-26T09:47:49;5.35;;;2.30;;
46835;SDS011;32573;51.290;6.926;2023-06-26T09:50:21;5.63;;;1.92;;
46835;SDS011;32573;51.290;6.926;2023-06-26T09:52:50;5.13;;;2.10;;
46835;SDS011;32573;51.290;6.926;2023-06-26T09:55:19;4.57;;;2.00;;
46835;SDS011;32573;51.290;6.926;2023-06-26T09:57:49;4.68;;;2.05;;
46835;SDS011;32573;51.290;6.926;2023-06-26T10:00:18;5.75;;;2.40;;
46835;SDS011;32573;51.290;6.926;2023-06-26T10:02:48;4.85;;;1.80;;
46835;SDS011;32573;51.290;6.926;2023-06-26T10:05:17;4.70;;;1.67;;
46835;SDS011;32573;51.290;6.926;2023-06-26T10:07:45;4.95;;;1.98;;
46835;SDS011;32573;51.290;6.926;2023-06-26T10:10:15;4.60;;;1.90;;
46835;SDS011;32573;51.290;6.926;2023-06-26T10:12:45;4.93;;;2.00;;
46835;SDS011;32573;51.290;6.926;2023-06-26T10:15:17;5.05;;;1.83;;
46835;SDS011;32573;51.290;6.926;2023-06-26T10:17:50;4.07;;;1.90;;
46835;SDS011;32573;51.290;6.926;2023-06-26T10:20:22;3.60;;;1.45;;
46835;SDS011;32573;51.290;6.926;2023-06-26T10:22:52;4.60;;;1.70;;
46835;SDS011;32573;51.290;6.926;2023-06-26T10:25:25;3.20;;;1.60;;
46835;SDS011;32573;51.290;6.926;2023-06-26T10:27:55;5.00;;;1.80;;
46835;SDS011;32573;51.290;6.926;2023-06-26T10:30:28;4.85;;;1.98;;
46835;SDS011;32573;51.290;6.926;2023-06-26T10:33:00;3.85;;;1.50;;
46835;SDS011;32573;51.290;6.926;2023-06-26T10:35:31;5.10;;;1.92;;
46835;SDS011;32573;51.290;6.926;2023-06-26T10:38:00;4.93;;;1.65;;
46835;SDS011;32573;51.290;6.926;2023-06-26T10:40:39;5.22;;;1.90;;
46835;SDS011;32573;51.290;6.926;2023-06-26T10:43:09;3.53;;;1.52;;
46835;SDS011;32573;51.290;6.926;2023-06-26T10:45:42;6.00;;;2.00;;
46835;SDS011;32573;51.290;6.926;2023-06-26T10:48:14;3.78;;;1.52;;
46835;SDS011;32573;51.290;6.926;2023-06-26T10:50:43;3.72;;;1.60;;
46835;SDS011;32573;51.290;6.926;2023-06-26T10:53:22;4.45;;;1.60;;
46835;SDS011;32573;51.290;6.926;2023-06-26T10:55:57;3.40;;;1.50;;
46835;SDS011;32573;51.290;6.926;2023-06-26T10:58:32;3.85;;;1.50;;
46835;SDS011;32573;51.290;6.926;2023-06-26T11:01:13;3.92;;;1.30;;
46835;SDS011;32573;51.290;6.926;2023-06-26T11:03:45;3.78;;;1.30;;
46835;SDS011;32573;51.290;6.926;2023-06-26T11:06:18;4.32;;;1.50;;
46835;SDS011;32573;51.290;6.926;2023-06-26T11:08:48;5.60;;;1.70;;
46835;SDS011;32573;51.290;6.926;2023-06-26T11:11:17;4.70;;;1.60;;
46835;SDS011;32573;51.290;6.926;2023-06-26T11:13:57;3.90;;;1.65;;
46835;SDS011;32573;51.290;6.926;2023-06-26T11:16:35;4.38;;;1.38;;
46835;SDS011;32573;51.290;6.926;2023-06-26T11:19:09;3.55;;;1.60;;
46835;SDS011;32573;51.290;6.926;2023-06-26T11:21:41;3.72;;;1.20;;
46835;SDS011;32573;51.290;6.926;2023-06-26T11:24:20;3.65;;;1.48;;
46835;SDS011;32573;51.290;6.926;2023-06-26T11:26:50;4.40;;;1.40;;
46835;SDS011;32573;51.290;6.926;2023-06-26T11:29:22;3.30;;;1.45;;
46835;SDS011;32573;51.290;6.926;2023-06-26T11:31:55;3.30;;;1.50;;
46835;SDS011;32573;51.290;6.926;2023-06-26T11:34:33;4.57;;;1.30;;
46835;SDS011;32573;51.290;6.926;2023-06-26T11:37:08;3.70;;;1.40;;
46835;SDS011;32573;51.290;6.926;2023-06-26T11:39:43;2.90;;;1.50;;
46835;SDS011;32573;51.290;6.926;2023-06-26T11:42:19;3.25;;;1.40;;
46835;SDS011;32573;51.290;6.926;2023-06-26T11:44:53;2.63;;;1.17;;
46835;SDS011;32573;51.290;6.926;2023-06-26T11:47:22;3.03;;;1.20;;
46835;SDS011;32573;51.290;6.926;2023-06-26T11:49:56;3.58;;;1.25;;
46835;SDS011;32573;51.290;6.926;2023-06-26T11:52:32;2.60;;;1.08;;
46835;SDS011;32573;51.290;6.926;2023-06-26T11:55:05;3.90;;;1.20;;
46835;SDS011;32573;51.290;6.926;2023-06-26T11:57:34;2.72;;;1.00;;
46835;SDS011;32573;51.290;6.926;2023-06-26T12:00:12;2.35;;;1.10;;
46835;SDS011;32573;51.290;6.926;2023-06-26T12:02:44;2.28;;;1.00;;
46835;SDS011;32573;51.290;6.926;2023-06-26T12:05:20;3.38;;;1.10;;
46835;SDS011;32573;51.290;6.926;2023-06-26T12:07:49;2.88;;;1.10;;
46835;SDS011;32573;51.290;6.926;2023-06-26T12:10:22;2.60;;;1.10;;
46835;SDS011;32573;51.290;6.926;2023-06-26T12:12:51;3.25;;;1.35;;
46835;SDS011;32573;51.290;6.926;2023-06-26T12:15:20;3.58;;;1.20;;
46835;SDS011;32573;51.290;6.926;2023-06-26T12:17:52;4.45;;;1.33;;
46835;SDS011;32573;51.290;6.926;2023-06-26T12:20:23;4.38;;;1.35;;
46835;SDS011;32573;51.290;6.926;2023-06-26T12:22:52;2.35;;;1.20;;
46835;SDS011;32573;51.290;6.926;2023-06-26T12:25:22;3.55;;;1.10;;
46835;SDS011;32573;51.290;6.926;2023-06-26T12:27:51;2.60;;;1.00;;
46835;SDS011;32573;51.290;6.926;2023-06-26T12:30:24;3.53;;;1.20;;
46835;SDS011;32573;51.290;6.926;2023-06-26T12:32:53;2.35;;;1.00;;
46835;SDS011;32573;51.290;6.926;2023-06-26T12:35:34;4.45;;;1.13;;
46835;SDS011;32573;51.290;6.926;2023-06-26T12:38:09;2.63;;;1.10;;
46835;SDS011;32573;51.290;6.926;2023-06-26T12:40:45;2.88;;;1.00;;
46835;SDS011;32573;51.290;6.926;2023-06-26T12:43:22;3.53;;;1.20;;
46835;SDS011;32573;51.290;6.926;2023-06-26T12:45:54;1.98;;;0.80;;
46835;SDS011;32573;51.290;6.926;2023-06-26T12:48:36;2.85;;;1.00;;
46835;SDS011;32573;51.290;6.926;2023-06-26T12:51:16;3.47;;;1.00;;
46835;SDS011;32573;51.290;6.926;2023-06-26T12:53:45;2.22;;;0.90;;
46835;SDS011;32573;51.290;6.926;2023-06-26T12:56:19;2.25;;;1.00;;
46835;SDS011;32573;51.290;6.926;2023-06-26T12:58:51;3.72;;;1.10;;
46835;SDS011;32573;51.290;6.926;2023-06-26T13:01:26;3.40;;;1.10;;
46835;SDS011;32573;51.290;6.926;2023-06-26T13:03:55;2.03;;;0.90;;
46835;SDS011;32573;51.290;6.926;2023-06-26T13:06:25;2.50;;;0.98;;
46835;SDS011;32573;51.290;6.926;2023-06-26T13:08:53;2.28;;;0.98;;
46835;SDS011;32573;51.290;6.926;2023-06-26T13:11:22;2.15;;;0.85;;
46835;SDS011;32573;51.290;6.926;2023-06-26T13:13:52;2.67;;;0.90;;
46835;SDS011;32573;51.290;6.926;2023-06-26T13:16:36;2.20;;;0.88;;
46835;SDS011;32573;51.290;6.926;2023-06-26T13:19:05;2.50;;;1.00;;
46835;SDS011;32573;51.290;6.926;2023-06-26T13:21:35;2.33;;;0.93;;
46835;SDS011;32573;51.290;6.926;2023-06-26T13:24:04;2.67;;;1.05;;
46835;SDS011;32573;51.290;6.926;2023-06-26T13:26:33;1.88;;;0.93;;
46835;SDS011;32573;51.290;6.926;2023-06-26T13:29:04;2.92;;;0.90;;
46835;SDS011;32573;51.290;6.926;2023-06-26T13:31:33;2.40;;;0.90;;
46835;SDS011;32573;51.290;6.926;2023-06-26T13:34:02;3.50;;;1.15;;
46835;SDS011;32573;51.290;6.926;2023-06-26T13:36:32;2.90;;;1.05;;
46835;SDS011;32573;51.290;6.926;2023-06-26T13:39:03;2.20;;;0.90;;
46835;SDS011;32573;51.290;6.926;2023-06-26T13:41:32;3.58;;;0.90;;
46835;SDS011;32573;51.290;6.926;2023-06-26T13:44:00;2.55;;;0.90;;
46835;SDS011;32573;51.290;6.926;2023-06-26T13:46:46;3.05;;;1.00;;
46835;SDS011;32573;51.290;6.926;2023-06-26T13:49:14;2.10;;;0.90;;
46835;SDS011;32573;51.290;6.926;2023-06-26T13:51:43;3.15;;;1.10;;
46835;SDS011;32573;51.290;6.926;2023-06-26T13:54:15;3.47;;;1.02;;
46835;SDS011;32573;51.290;6.926;2023-06-26T13:56:45;1.63;;;0.80;;
46835;SDS011;32573;51.290;6.926;2023-06-26T13:59:13;2.22;;;0.80;;
46835;SDS011;32573;51.290;6.926;2023-06-26T14:01:42;2.65;;;0.80;;
46835;SDS011;32573;51.290;6.926;2023-06-26T14:04:11;1.80;;;0.85;;
46835;SDS011;32573;51.290;6.926;2023-06-26T14:06:39;2.85;;;0.98;;
46835;SDS011;32573;51.290;6.926;2023-06-26T14:09:09;2.60;;;1.00;;
46835;SDS011;32573;51.290;6.926;2023-06-26T14:11:38;2.75;;;0.90;;
46835;SDS011;32573;51.290;6.926;2023-06-26T14:14:07;2.00;;;0.90;;
46835;SDS011;32573;51.290;6.926;2023-06-26T14:16:35;2.20;;;1.00;;
46835;SDS011;32573;51.290;6.926;2023-06-26T14:19:04;2.40;;;0.93;;
46835;SDS011;32573;51.290;6.926;2023-06-26T14:21:32;3.08;;;1.05;;
46835;SDS011;32573;51.290;6.926;2023-06-26T14:24:01;2.42;;;0.90;;
46835;SDS011;32573;51.290;6.926;2023-06-26T14:26:30;2.45;;;1.00;;
46835;SDS011;32573;51.290;6.926;2023-06-26T14:29:00;2.17;;;0.90;;
46835;SDS011;32573;51.290;6.926;2023-06-26T14:31:29;2.30;;;1.00;;
46835;SDS011;32573;51.290;6.926;2023-06-26T14:33:57;3.28;;;1.10;;
46835;SDS011;32573;51.290;6.926;2023-06-26T14:36:26;2.83;;;0.90;;
46835;SDS011;32573;51.290;6.926;2023-06-26T14:38:54;2.58;;;0.93;;
46835;SDS011;32573;51.290;6.926;2023-06-26T14:41:23;2.50;;;1.10;;
46835;SDS011;32573;51.290;6.926;2023-06-26T14:43:52;3.17;;;1.10;;
46835;SDS011;32573;51.290;6.926;2023-06-26T14:46:23;2.60;;;1.00;;
46835;SDS011;32573;51.290;6.926;2023-06-26T14:48:52;2.55;;;1.00;;
46835;SDS011;32573;51.290;6.926;2023-06-26T14:51:22;5.20;;;1.15;;
46835;SDS011;32573;51.290;6.926;2023-06-26T14:53:51;2.88;;;1.20;;
46835;SDS011;32573;51.290;6.926;2023-06-26T14:56:19;1.92;;;0.93;;
46835;SDS011;32573;51.290;6.926;2023-06-26T14:58:49;2.65;;;1.00;;
46835;SDS011;32573;51.290;6.926;2023-06-26T15:01:18;2.13;;;0.88;;
46835;SDS011;32573;51.290;6.926;2023-06-26T15:03:48;2.45;;;1.00;;
46835;SDS011;32573;51.290;6.926;2023-06-26T15:06:17;1.83;;;0.90;;
46835;SDS011;32573;51.290;6.926;2023-06-26T15:08:45;3.22;;;0.90;;
46835;SDS011;32573;51.290;6.926;2023-06-26T15:11:14;2.25;;;0.77;;